MSC Florentina — HPFH — position and weather

sailwx.info

Track history (hours):
 
Tides and Currents Weather Stations Pressure Air Temp Water Temp Dewpoint Dewpoint Depression Visibility Wind Speed Wind Dir Waves Ship Positions

MSC Florentina

Last reported at 2015-Aug-30 08:15 UTC. Time now 2015-Aug-30 22:37 UTC.
Position N 37°46' E 025°49'.

Length 300 m; draft 9.6 m.

Type: Ship. MMSI: 352870000.

Date/timePositionNaut miles runAvg speedWind from/ knotsBaromVisibWave heightAir tempDewpointWater temp
2015-Aug-30 08:15N 37°46' E 025°49'912.4
2015-Aug-30 07:33N 37°38' E 025°50'1212.2
2015-Aug-30 06:33N 37°26' E 025°54'1212.4
2015-Aug-30 05:33N 37°15' E 026°02'1312.3
2015-Aug-30 04:31N 37°04' E 026°09'1111.5
2015-Aug-30 03:33N 36°55' E 026°18'1212.0
2015-Aug-30 02:33N 36°47' E 026°28'1912.8
2015-Aug-30 01:05N 36°33' E 026°45'713.1
2015-Aug-30 00:33N 36°28' E 026°51'1312.7
2015-Aug-29 23:31N 36°19' E 027°02'1212.9
2015-Aug-29 22:33N 36°10' E 027°13'1312.7
2015-Aug-29 21:33N 36°01' E 027°24'1411.4
2015-Aug-29 20:21N 35°52' E 027°36'911.2
2015-Aug-29 19:33N 35°47' E 027°46'1411.6
2015-Aug-29 18:21N 35°42' E 028°02'911.8
2015-Aug-29 17:33N 35°39' E 028°13'1211.8
2015-Aug-29 16:33N 35°35' E 028°27'1211.9
2015-Aug-29 15:33N 35°32' E 028°40'1212.1
2015-Aug-29 14:33N 35°28' E 028°55'1312.5
2015-Aug-29 13:32N 35°24' E 029°09'1312.7
2015-Aug-29 12:30N 35°20' E 029°24'1212.7
2015-Aug-29 11:33N 35°16' E 029°38'6712.7
2015-Aug-29 06:16N 34°54' E 030°56'912.7
2015-Aug-29 05:33N 34°51' E 031°07'3812.6
2015-Aug-29 02:31N 34°39' E 031°51'3112.8
2015-Aug-29 00:03N 34°29' E 032°27'1012.7
2015-Aug-28 23:17N 34°26' E 032°38'1312.4
2015-Aug-28 22:14N 34°22' E 032°53'812.0
2015-Aug-28 21:33N 34°19' E 033°03'1212.1
2015-Aug-28 20:33N 34°17' E 033°17'1211.7
2015-Aug-28 19:33N 34°14' E 033°31'1211.6
2015-Aug-28 18:33N 34°12' E 033°44'1211.9
2015-Aug-28 17:33N 34°09' E 033°59'1212.0
2015-Aug-28 16:33N 34°07' E 034°13'1211.8
2015-Aug-28 15:33N 34°04' E 034°27'1212.4
2015-Aug-28 14:33N 34°01' E 034°41'1312.5
2015-Aug-28 13:32N 33°59' E 034°56'30 7.4
2015-Aug-28 09:28N 33°55' E 035°32'0 0.0
2015-Aug-28 08:34N 33°55' E 035°32'0 0.0
2015-Aug-28 07:31N 33°55' E 035°32'0 0.0
2015-Aug-28 06:34N 33°55' E 035°32'0 0.0
2015-Aug-28 05:29N 33°55' E 035°32'0 0.0
2015-Aug-28 04:33N 33°55' E 035°32'0 0.0
2015-Aug-28 03:22N 33°55' E 035°32'0 0.0
2015-Aug-28 02:25N 33°55' E 035°32'0 0.0
2015-Aug-28 01:33N 33°55' E 035°32'53 2.5
2015-Aug-27 04:23N 33°60' E 034°28'1315.8
2015-Aug-27 03:34N 34°01' E 034°13'1615.8
2015-Aug-27 02:33N 34°02' E 033°54'2014.2
2015-Aug-27 01:07N 34°03' E 033°29'813.2
2015-Aug-27 00:30N 34°04' E 033°19'1313.5
2015-Aug-26 23:34N 34°04' E 033°04'1413.9
2015-Aug-26 22:34N 34°05' E 032°47'1413.6
2015-Aug-26 21:33N 34°06' E 032°31'1413.6
2015-Aug-26 20:30N 34°07' E 032°14'1313.3
2015-Aug-26 19:33N 34°08' E 031°58'1413.7
2015-Aug-26 18:33N 34°09' E 031°42'1413.2
2015-Aug-26 17:32N 34°10' E 031°26'9313.3
2015-Aug-26 10:33N 34°16' E 029°34'1813.7
2015-Aug-26 09:13N 34°18' E 029°12'65018.6
2015-Aug-24 22:20N 37°33' E 016°26'1519.2
2015-Aug-24 21:33N 37°40' E 016°09'1918.6
2015-Aug-24 20:33N 37°47' E 015°48'1515.0
2015-Aug-24 19:33N 37°58' E 015°35'1413.8
2015-Aug-24 18:33N 38°12' E 015°35'1717.5
2015-Aug-24 17:33N 38°25' E 015°50'4 4.3
2015-Aug-24 16:33N 38°28' E 015°54'0 0.0
2015-Aug-24 15:33N 38°28' E 015°54'0 0.0
2015-Aug-24 14:33N 38°28' E 015°54'0 0.0
2015-Aug-24 13:33N 38°28' E 015°54'0 0.0
2015-Aug-24 12:33N 38°28' E 015°54'0 0.0
2015-Aug-24 11:33N 38°28' E 015°54'0 0.0
2015-Aug-24 10:27N 38°28' E 015°54'0 0.0
2015-Aug-24 09:30N 38°28' E 015°54'0 0.0
2015-Aug-24 08:33N 38°28' E 015°54'0 0.0
2015-Aug-24 07:33N 38°28' E 015°54'0 0.0
2015-Aug-24 06:33N 38°28' E 015°54'0 0.0
2015-Aug-24 05:33N 38°28' E 015°54'0 0.0
2015-Aug-24 03:27N 38°28' E 015°54'0 0.0
2015-Aug-24 02:33N 38°28' E 015°54'0 0.0
2015-Aug-24 01:30N 38°28' E 015°54'0 0.0
2015-Aug-24 00:33N 38°28' E 015°54'0 0.0
2015-Aug-23 23:33N 38°28' E 015°54'0 0.0
2015-Aug-23 22:30N 38°28' E 015°54'0 0.0
2015-Aug-23 21:33N 38°28' E 015°54'0 0.0
2015-Aug-23 20:33N 38°28' E 015°54'0 0.0
2015-Aug-23 19:33N 38°28' E 015°54'0 0.0
2015-Aug-23 18:33N 38°28' E 015°54'0 0.0
2015-Aug-23 17:33N 38°28' E 015°54'0 0.0
2015-Aug-23 16:30N 38°28' E 015°54'0 0.0
2015-Aug-23 15:24N 38°28' E 015°54'1 0.9
2015-Aug-23 14:33N 38°27' E 015°54'8 8.4
2015-Aug-23 13:34N 38°30' E 015°44'2019.8
2015-Aug-23 12:34N 38°38' E 015°21'1817.9
2015-Aug-23 11:33N 38°45' E 014°59'1212.5
2015-Aug-23 10:34N 38°44' E 014°44'5512.5
2015-Aug-23 06:09N 38°38' E 013°33'712.6
2015-Aug-23 05:33N 38°37' E 013°24'1312.7
2015-Aug-23 04:34N 38°36' E 013°08'1312.8
2015-Aug-23 03:34N 38°35' E 012°51'1312.7
2015-Aug-23 02:30N 38°35' E 012°34'10312.4
2015-Aug-22 18:10N 38°38' E 010°22'915.0
2015-Aug-22 17:33N 38°38' E 010°10'1515.5
2015-Aug-22 16:33N 38°39' E 009°50'1515.6
2015-Aug-22 15:33N 38°39' E 009°30'1615.8
2015-Aug-22 14:33N 38°39' E 009°10'1615.9
2015-Aug-22 13:33N 38°39' E 008°50'1615.9
2015-Aug-22 12:33N 38°40' E 008°29'1616.2
2015-Aug-22 11:33N 38°48' E 008°11'3416.4
2015-Aug-22 09:30N 39°04' E 007°33'21016.2
2015-Aug-21 20:33N 40°44' E 003°32'1616.0
2015-Aug-21 19:33N 40°51' E 003°14'1615.8
2015-Aug-21 18:33N 40°59' E 002°55'1615.8
2015-Aug-21 17:33N 41°06' E 002°37'1716.7
2015-Aug-21 16:33N 41°14' E 002°17'7 0.5
2015-Aug-21 04:25N 41°18' E 002°10'3110.8
2015-Aug-21 01:33N 40°50' E 001°54'1514.7
2015-Aug-21 00:33N 40°37' E 001°45'1515.5
2015-Aug-20 23:33N 40°23' E 001°36'1615.8
2015-Aug-20 22:33N 40°09' E 001°26'1616.1
2015-Aug-20 21:33N 39°55' E 001°17'1616.1
2015-Aug-20 20:33N 39°41' E 001°07'1615.8
2015-Aug-20 19:34N 39°27' E 000°58'2316.0
2015-Aug-20 18:08N 39°07' E 000°44'916.0
2015-Aug-20 17:33N 38°58' E 000°39'3115.4
2015-Aug-20 15:32N 38°31' E 000°18'1715.4
2015-Aug-20 14:27N 38°17' E 000°07'1815.3
2015-Aug-20 13:17N 38°03' W 000°06'1115.0
2015-Aug-20 12:33N 37°54' W 000°14'1515.0
2015-Aug-20 11:33N 37°41' W 000°24'1515.0
2015-Aug-20 10:33N 37°30' W 000°36'1515.1
2015-Aug-20 09:33N 37°20' W 000°50'1615.0
2015-Aug-20 08:31N 37°09' W 001°05'  
Track history (hours):
 
Tides and Currents Weather Stations Pressure Air Temp Water Temp Dewpoint Dewpoint Depression Visibility Wind Speed Wind Dir Waves Ship Positions

MSC Florentina

Last reported at 2015-Aug-30 08:15 UTC. Time now 2015-Aug-30 22:37 UTC.
Position N 37°46' E 025°49'.

Length 300 m; draft 9.6 m.

Type: Ship. MMSI: 352870000.

Date/timePositionNaut miles runAvg speedWind from/ knotsBaromVisibWave heightAir tempDewpointWater temp
2015-Aug-30 08:15N 37°46' E 025°49'912.4
2015-Aug-30 07:33N 37°38' E 025°50'1212.2
2015-Aug-30 06:33N 37°26' E 025°54'1212.4
2015-Aug-30 05:33N 37°15' E 026°02'1312.3
2015-Aug-30 04:31N 37°04' E 026°09'1111.5
2015-Aug-30 03:33N 36°55' E 026°18'1212.0
2015-Aug-30 02:33N 36°47' E 026°28'1912.8
2015-Aug-30 01:05N 36°33' E 026°45'713.1
2015-Aug-30 00:33N 36°28' E 026°51'1312.7
2015-Aug-29 23:31N 36°19' E 027°02'1212.9
2015-Aug-29 22:33N 36°10' E 027°13'1312.7
2015-Aug-29 21:33N 36°01' E 027°24'1411.4
2015-Aug-29 20:21N 35°52' E 027°36'911.2
2015-Aug-29 19:33N 35°47' E 027°46'1411.6
2015-Aug-29 18:21N 35°42' E 028°02'911.8
2015-Aug-29 17:33N 35°39' E 028°13'1211.8
2015-Aug-29 16:33N 35°35' E 028°27'1211.9
2015-Aug-29 15:33N 35°32' E 028°40'1212.1
2015-Aug-29 14:33N 35°28' E 028°55'1312.5
2015-Aug-29 13:32N 35°24' E 029°09'1312.7
2015-Aug-29 12:30N 35°20' E 029°24'1212.7
2015-Aug-29 11:33N 35°16' E 029°38'6712.7
2015-Aug-29 06:16N 34°54' E 030°56'912.7
2015-Aug-29 05:33N 34°51' E 031°07'3812.6
2015-Aug-29 02:31N 34°39' E 031°51'3112.8
2015-Aug-29 00:03N 34°29' E 032°27'1012.7
2015-Aug-28 23:17N 34°26' E 032°38'1312.4
2015-Aug-28 22:14N 34°22' E 032°53'812.0
2015-Aug-28 21:33N 34°19' E 033°03'1212.1
2015-Aug-28 20:33N 34°17' E 033°17'1211.7
2015-Aug-28 19:33N 34°14' E 033°31'1211.6
2015-Aug-28 18:33N 34°12' E 033°44'1211.9
2015-Aug-28 17:33N 34°09' E 033°59'1212.0
2015-Aug-28 16:33N 34°07' E 034°13'1211.8
2015-Aug-28 15:33N 34°04' E 034°27'1212.4
2015-Aug-28 14:33N 34°01' E 034°41'1312.5
2015-Aug-28 13:32N 33°59' E 034°56'30 7.4
2015-Aug-28 09:28N 33°55' E 035°32'0 0.0
2015-Aug-28 08:34N 33°55' E 035°32'0 0.0
2015-Aug-28 07:31N 33°55' E 035°32'0 0.0
2015-Aug-28 06:34N 33°55' E 035°32'0 0.0
2015-Aug-28 05:29N 33°55' E 035°32'0 0.0
2015-Aug-28 04:33N 33°55' E 035°32'0 0.0
2015-Aug-28 03:22N 33°55' E 035°32'0 0.0
2015-Aug-28 02:25N 33°55' E 035°32'0 0.0
2015-Aug-28 01:33N 33°55' E 035°32'53 2.5
2015-Aug-27 04:23N 33°60' E 034°28'1315.8
2015-Aug-27 03:34N 34°01' E 034°13'1615.8
2015-Aug-27 02:33N 34°02' E 033°54'2014.2
2015-Aug-27 01:07N 34°03' E 033°29'813.2
2015-Aug-27 00:30N 34°04' E 033°19'1313.5
2015-Aug-26 23:34N 34°04' E 033°04'1413.9
2015-Aug-26 22:34N 34°05' E 032°47'1413.6
2015-Aug-26 21:33N 34°06' E 032°31'1413.6
2015-Aug-26 20:30N 34°07' E 032°14'1313.3
2015-Aug-26 19:33N 34°08' E 031°58'1413.7
2015-Aug-26 18:33N 34°09' E 031°42'1413.2
2015-Aug-26 17:32N 34°10' E 031°26'9313.3
2015-Aug-26 10:33N 34°16' E 029°34'1813.7
2015-Aug-26 09:13N 34°18' E 029°12'65018.6
2015-Aug-24 22:20N 37°33' E 016°26'1519.2
2015-Aug-24 21:33N 37°40' E 016°09'1918.6
2015-Aug-24 20:33N 37°47' E 015°48'1515.0
2015-Aug-24 19:33N 37°58' E 015°35'1413.8
2015-Aug-24 18:33N 38°12' E 015°35'1717.5
2015-Aug-24 17:33N 38°25' E 015°50'4 4.3
2015-Aug-24 16:33N 38°28' E 015°54'0 0.0
2015-Aug-24 15:33N 38°28' E 015°54'0 0.0
2015-Aug-24 14:33N 38°28' E 015°54'0 0.0
2015-Aug-24 13:33N 38°28' E 015°54'0 0.0
2015-Aug-24 12:33N 38°28' E 015°54'0 0.0
2015-Aug-24 11:33N 38°28' E 015°54'0 0.0
2015-Aug-24 10:27N 38°28' E 015°54'0 0.0
2015-Aug-24 09:30N 38°28' E 015°54'0 0.0
2015-Aug-24 08:33N 38°28' E 015°54'0 0.0
2015-Aug-24 07:33N 38°28' E 015°54'0 0.0
2015-Aug-24 06:33N 38°28' E 015°54'0 0.0
2015-Aug-24 05:33N 38°28' E 015°54'0 0.0
2015-Aug-24 03:27N 38°28' E 015°54'0 0.0
2015-Aug-24 02:33N 38°28' E 015°54'0 0.0
2015-Aug-24 01:30N 38°28' E 015°54'0 0.0
2015-Aug-24 00:33N 38°28' E 015°54'0 0.0
2015-Aug-23 23:33N 38°28' E 015°54'0 0.0
2015-Aug-23 22:30N 38°28' E 015°54'0 0.0
2015-Aug-23 21:33N 38°28' E 015°54'0 0.0
2015-Aug-23 20:33N 38°28' E 015°54'0 0.0
2015-Aug-23 19:33N 38°28' E 015°54'0 0.0
2015-Aug-23 18:33N 38°28' E 015°54'0 0.0
2015-Aug-23 17:33N 38°28' E 015°54'0 0.0
2015-Aug-23 16:30N 38°28' E 015°54'0 0.0
2015-Aug-23 15:24N 38°28' E 015°54'1 0.9
2015-Aug-23 14:33N 38°27' E 015°54'8 8.4
2015-Aug-23 13:34N 38°30' E 015°44'2019.8
2015-Aug-23 12:34N 38°38' E 015°21'1817.9
2015-Aug-23 11:33N 38°45' E 014°59'1212.5
2015-Aug-23 10:34N 38°44' E 014°44'5512.5
2015-Aug-23 06:09N 38°38' E 013°33'712.6
2015-Aug-23 05:33N 38°37' E 013°24'1312.7
2015-Aug-23 04:34N 38°36' E 013°08'1312.8
2015-Aug-23 03:34N 38°35' E 012°51'1312.7
2015-Aug-23 02:30N 38°35' E 012°34'10312.4
2015-Aug-22 18:10N 38°38' E 010°22'915.0
2015-Aug-22 17:33N 38°38' E 010°10'1515.5
2015-Aug-22 16:33N 38°39' E 009°50'1515.6
2015-Aug-22 15:33N 38°39' E 009°30'1615.8
2015-Aug-22 14:33N 38°39' E 009°10'1615.9
2015-Aug-22 13:33N 38°39' E 008°50'1615.9
2015-Aug-22 12:33N 38°40' E 008°29'1616.2
2015-Aug-22 11:33N 38°48' E 008°11'3416.4
2015-Aug-22 09:30N 39°04' E 007°33'21016.2
2015-Aug-21 20:33N 40°44' E 003°32'1616.0
2015-Aug-21 19:33N 40°51' E 003°14'1615.8
2015-Aug-21 18:33N 40°59' E 002°55'1615.8
2015-Aug-21 17:33N 41°06' E 002°37'1716.7
2015-Aug-21 16:33N 41°14' E 002°17'7 0.5
2015-Aug-21 04:25N 41°18' E 002°10'3110.8
2015-Aug-21 01:33N 40°50' E 001°54'1514.7
2015-Aug-21 00:33N 40°37' E 001°45'1515.5
2015-Aug-20 23:33N 40°23' E 001°36'1615.8
2015-Aug-20 22:33N 40°09' E 001°26'1616.1
2015-Aug-20 21:33N 39°55' E 001°17'1616.1
2015-Aug-20 20:33N 39°41' E 001°07'1615.8
2015-Aug-20 19:34N 39°27' E 000°58'2316.0
2015-Aug-20 18:08N 39°07' E 000°44'916.0
2015-Aug-20 17:33N 38°58' E 000°39'3115.4
2015-Aug-20 15:32N 38°31' E 000°18'1715.4
2015-Aug-20 14:27N 38°17' E 000°07'1815.3
2015-Aug-20 13:17N 38°03' W 000°06'1115.0
2015-Aug-20 12:33N 37°54' W 000°14'1515.0
2015-Aug-20 11:33N 37°41' W 000°24'1515.0
2015-Aug-20 10:33N 37°30' W 000°36'1515.1
2015-Aug-20 09:33N 37°20' W 000°50'1615.0
2015-Aug-20 08:31N 37°09' W 001°05'  

Dump ship's entire track history